createdAt,value
2019-05-25T00:01:18.830Z,11.00
2019-05-25T00:03:48.388Z,11.00
2019-05-25T00:06:18.121Z,11.00
2019-05-25T00:08:47.814Z,11.00
2019-05-25T00:11:17.504Z,11.00
2019-05-25T00:13:47.219Z,11.00
2019-05-25T00:16:16.985Z,10.90
2019-05-25T00:18:49.772Z,10.90
2019-05-25T00:21:19.486Z,10.90
2019-05-25T00:23:49.072Z,10.90
2019-05-25T00:26:21.757Z,10.90
2019-05-25T00:28:51.441Z,10.90
2019-05-25T00:31:21.125Z,10.90
2019-05-25T00:33:50.808Z,10.90
2019-05-25T00:36:21.576Z,10.90
2019-05-25T00:38:51.371Z,10.90
2019-05-25T00:41:21.021Z,11.00
2019-05-25T00:43:50.748Z,11.00
2019-05-25T00:46:20.373Z,11.00
2019-05-25T00:48:50.119Z,10.90
2019-05-25T00:51:19.819Z,10.90
2019-05-25T00:53:49.567Z,10.80
2019-05-25T00:56:19.281Z,10.80
2019-05-25T00:58:48.962Z,10.70
2019-05-25T01:01:18.672Z,10.70
2019-05-25T01:03:48.344Z,10.70
2019-05-25T01:06:18.538Z,10.80
2019-05-25T01:08:48.264Z,10.70
2019-05-25T01:11:17.803Z,10.70
2019-05-25T01:13:47.513Z,10.60
2019-05-25T01:16:17.128Z,10.60
2019-05-25T01:18:59.574Z,10.60
2019-05-25T01:21:30.293Z,10.50
2019-05-25T01:24:00.066Z,10.50
2019-05-25T01:26:29.729Z,10.40
2019-05-25T01:28:59.427Z,10.30
2019-05-25T01:31:29.063Z,10.20
2019-05-25T01:33:58.781Z,10.10
2019-05-25T01:36:28.437Z,10.10
2019-05-25T01:38:58.104Z,10.00
2019-05-25T01:41:27.845Z,10.00
2019-05-25T01:43:57.541Z,9.90
2019-05-25T01:46:27.175Z,9.90
2019-05-25T01:48:56.844Z,9.80
2019-05-25T01:51:26.538Z,9.80
2019-05-25T01:53:56.191Z,9.70
2019-05-25T01:56:25.904Z,9.70
2019-05-25T01:58:55.572Z,9.60
2019-05-25T02:01:25.305Z,9.60
2019-05-25T02:03:54.910Z,9.50
2019-05-25T02:06:24.623Z,9.50
2019-05-25T02:08:54.320Z,9.50
2019-05-25T02:11:24.005Z,9.40
2019-05-25T02:13:53.669Z,9.40
2019-05-25T02:16:23.331Z,9.40
2019-05-25T02:18:53.033Z,9.40
2019-05-25T02:21:22.666Z,9.40
2019-05-25T02:23:52.337Z,9.40
2019-05-25T02:26:21.962Z,9.30
2019-05-25T02:28:51.683Z,9.20
2019-05-25T02:31:21.373Z,9.20
2019-05-25T02:33:51.010Z,9.10
2019-05-25T02:36:21.016Z,9.10
2019-05-25T02:38:50.784Z,9.10
2019-05-25T02:41:20.408Z,9.10
2019-05-25T02:43:50.100Z,9.10
2019-05-25T02:46:19.721Z,9.20
2019-05-25T02:48:49.433Z,9.20
2019-05-25T02:51:19.096Z,9.20
2019-05-25T02:53:48.778Z,9.20
2019-05-25T02:56:18.501Z,9.10
2019-05-25T02:58:48.155Z,9.10
2019-05-25T03:01:17.845Z,9.10
2019-05-25T03:03:47.633Z,9.00
2019-05-25T03:06:20.080Z,8.90
2019-05-25T03:08:50.466Z,8.80
2019-05-25T03:11:21.127Z,8.80
2019-05-25T03:13:50.864Z,8.70
2019-05-25T03:16:20.691Z,8.70
2019-05-25T03:19:01.134Z,8.70
2019-05-25T03:21:30.831Z,8.80
2019-05-25T03:24:00.547Z,8.70
2019-05-25T03:26:30.250Z,8.70
2019-05-25T03:28:59.889Z,8.70
2019-05-25T03:31:29.568Z,8.70
2019-05-25T03:33:59.412Z,8.70
2019-05-25T03:36:29.088Z,8.80
2019-05-25T03:38:58.754Z,8.80
2019-05-25T03:41:28.438Z,8.80
2019-05-25T03:43:58.062Z,8.80
2019-05-25T03:46:27.775Z,8.80
2019-05-25T03:48:57.452Z,8.80
2019-05-25T03:51:27.144Z,8.80
2019-05-25T03:53:59.877Z,8.80
2019-05-25T03:56:29.587Z,8.90
2019-05-25T03:58:59.231Z,8.90
2019-05-25T04:01:28.928Z,9.00
2019-05-25T04:03:58.572Z,9.00
2019-05-25T04:06:28.247Z,9.10
2019-05-25T04:08:58.017Z,9.20
2019-05-25T04:11:27.714Z,9.30
2019-05-25T04:13:57.406Z,9.30
2019-05-25T04:16:27.128Z,9.40
2019-05-25T04:18:56.926Z,9.40
2019-05-25T04:21:26.619Z,9.50
2019-05-25T04:23:56.224Z,9.60
2019-05-25T04:26:27.623Z,9.70
2019-05-25T04:28:57.408Z,9.70
2019-05-25T04:31:27.095Z,9.60
2019-05-25T04:33:58.001Z,9.60
2019-05-25T04:36:29.272Z,9.60
2019-05-25T04:38:58.937Z,9.70
2019-05-25T04:41:28.557Z,9.90
2019-05-25T04:43:58.161Z,10.40
2019-05-25T04:46:27.888Z,11.10
2019-05-25T04:49:00.740Z,11.80
2019-05-25T04:51:30.422Z,12.40
2019-05-25T04:54:00.067Z,13.10
2019-05-25T04:56:39.593Z,13.70
2019-05-25T04:59:01.035Z,14.20
2019-05-25T05:01:30.726Z,14.30
2019-05-25T05:04:00.441Z,14.40
2019-05-25T05:06:31.557Z,14.60
2019-05-25T05:09:01.280Z,14.80
2019-05-25T05:11:32.292Z,15.10
2019-05-25T05:14:01.975Z,15.30
2019-05-25T05:16:31.714Z,15.60
2019-05-25T05:19:14.718Z,15.90
2019-05-25T05:21:44.492Z,16.20
2019-05-25T05:24:14.064Z,16.70
2019-05-25T05:26:55.271Z,17.00
2019-05-25T05:29:15.021Z,17.30
2019-05-25T05:31:44.689Z,17.60
2019-05-25T05:34:15.247Z,17.70
2019-05-25T05:36:45.365Z,17.80
2019-05-25T05:39:21.703Z,17.80
2019-05-25T05:41:54.953Z,17.80
2019-05-25T05:44:28.266Z,17.80
2019-05-25T05:46:59.397Z,17.90
2019-05-25T05:49:31.066Z,18.00
2019-05-25T05:52:06.663Z,18.00
2019-05-25T05:55:18.791Z,18.10
2019-05-25T05:57:48.522Z,18.20
2019-05-25T06:00:18.687Z,18.30
2019-05-25T06:02:48.369Z,18.50
2019-05-25T06:05:18.050Z,18.70
2019-05-25T06:07:47.770Z,18.80
2019-05-25T06:10:17.517Z,19.00
2019-05-25T06:12:47.286Z,19.10
2019-05-25T06:15:17.171Z,19.30
2019-05-25T06:17:46.973Z,19.40
2019-05-25T06:20:16.876Z,19.50
2019-05-25T06:22:46.591Z,19.60
2019-05-25T06:25:16.253Z,19.60
2019-05-25T06:27:45.936Z,19.50
2019-05-25T06:30:16.444Z,19.60
2019-05-25T06:32:46.129Z,19.80
2019-05-25T06:35:17.360Z,19.90
2019-05-25T06:37:47.020Z,20.00
2019-05-25T06:40:17.860Z,20.10
2019-05-25T06:42:47.508Z,20.30
2019-05-25T06:45:18.902Z,20.40
2019-05-25T06:47:55.814Z,20.60
2019-05-25T06:50:25.473Z,20.60
2019-05-25T06:52:57.830Z,20.70
2019-05-25T06:55:28.130Z,20.80
2019-05-25T06:57:57.815Z,20.90
2019-05-25T07:00:27.552Z,21.10
2019-05-25T07:02:57.424Z,21.20
2019-05-25T07:05:27.107Z,21.50
2019-05-25T07:07:56.700Z,21.70
2019-05-25T07:10:26.612Z,21.90
2019-05-25T07:12:56.236Z,22.10
2019-05-25T07:15:25.896Z,22.20
2019-05-25T07:18:26.593Z,22.10
2019-05-25T07:20:57.804Z,21.90
2019-05-25T07:23:27.422Z,21.70
2019-05-25T07:25:57.052Z,21.50
2019-05-25T07:28:26.808Z,21.40
2019-05-25T07:30:56.508Z,21.30
2019-05-25T07:33:26.209Z,21.20
2019-05-25T07:36:07.710Z,21.30
2019-05-25T07:38:37.784Z,21.40
2019-05-25T07:41:07.301Z,21.40
2019-05-25T07:43:40.469Z,21.40
2019-05-25T07:46:11.822Z,21.50
2019-05-25T07:48:41.448Z,21.60
2019-05-25T07:51:11.128Z,21.80
2019-05-25T07:53:42.377Z,21.90
2019-05-25T07:56:13.516Z,21.90
2019-05-25T07:58:43.193Z,21.90
2019-05-25T08:01:12.890Z,21.80
2019-05-25T08:03:42.664Z,21.70
2019-05-25T08:06:12.610Z,21.70
2019-05-25T08:08:42.302Z,21.70
2019-05-25T08:11:11.983Z,21.60
2019-05-25T08:13:41.604Z,21.70
2019-05-25T08:16:13.961Z,21.90
2019-05-25T08:18:43.677Z,22.10
2019-05-25T08:21:13.349Z,22.10
2019-05-25T08:23:43.109Z,22.10
2019-05-25T08:26:12.837Z,22.00
2019-05-25T08:28:49.258Z,21.90
2019-05-25T08:31:18.770Z,21.90
2019-05-25T08:33:48.472Z,21.90
2019-05-25T08:36:19.360Z,22.00
2019-05-25T08:39:03.763Z,22.00
2019-05-25T08:41:35.568Z,22.10
2019-05-25T08:44:21.639Z,22.20
2019-05-25T08:50:19.581Z,22.40
2019-05-25T08:53:15.245Z,22.50
2019-05-25T08:59:25.580Z,22.70
2019-05-25T09:02:09.623Z,22.70
2019-05-25T09:04:39.477Z,22.80
2019-05-25T09:07:53.741Z,22.80
2019-05-25T09:14:12.855Z,22.60
2019-05-25T09:17:16.583Z,22.50
2019-05-25T09:26:13.558Z,22.30
2019-05-25T09:28:44.930Z,22.10
2019-05-25T09:31:14.734Z,21.80
2019-05-25T09:34:09.453Z,21.70
2019-05-25T09:36:54.266Z,21.60
2019-05-25T09:42:36.562Z,21.40
2019-05-25T09:45:08.751Z,21.50
2019-05-25T09:48:15.901Z,21.40
2019-05-25T09:50:45.569Z,21.50
2019-05-25T09:53:15.236Z,21.50
2019-05-25T09:56:23.283Z,21.50
2019-05-25T09:59:19.228Z,21.50
2019-05-25T10:02:02.311Z,21.50
2019-05-25T10:04:32.626Z,21.60
2019-05-25T10:07:31.221Z,21.50
2019-05-25T10:10:04.003Z,21.50
2019-05-25T10:12:36.022Z,21.40
2019-05-25T10:15:27.854Z,21.50
2019-05-25T10:17:59.361Z,21.60
2019-05-25T10:20:38.403Z,21.80
2019-05-25T10:23:05.060Z,22.00
2019-05-25T10:25:55.089Z,22.10
2019-05-25T10:28:18.421Z,22.20
2019-05-25T10:31:00.821Z,22.20
2019-05-25T10:33:38.140Z,22.30
2019-05-25T10:36:13.122Z,22.40
2019-05-25T10:39:00.837Z,22.50
2019-05-25T10:41:35.422Z,22.60
2019-05-25T10:44:12.729Z,22.60
2019-05-25T10:46:50.126Z,22.50
2019-05-25T10:49:21.744Z,22.50
2019-05-25T10:52:07.649Z,22.50
2019-05-25T10:54:45.143Z,22.40
2019-05-25T10:57:16.356Z,22.30
2019-05-25T10:59:53.028Z,22.20
2019-05-25T11:02:22.169Z,22.00
2019-05-25T11:04:53.672Z,21.80
2019-05-25T11:07:23.388Z,21.70
2019-05-25T11:09:53.167Z,21.50
2019-05-25T11:12:25.995Z,21.40
2019-05-25T11:14:54.416Z,21.40
2019-05-25T11:17:25.099Z,21.40
2019-05-25T11:19:54.828Z,21.50
2019-05-25T11:22:24.796Z,21.40
2019-05-25T11:24:55.921Z,21.50
2019-05-25T11:27:28.811Z,21.60
2019-05-25T11:30:08.975Z,21.70
2019-05-25T11:32:37.583Z,21.80
2019-05-25T11:35:12.996Z,21.90
2019-05-25T11:37:42.650Z,21.80
2019-05-25T11:40:13.075Z,21.80
2019-05-25T11:42:42.608Z,21.80
2019-05-25T11:45:12.768Z,21.80
2019-05-25T11:47:42.436Z,21.90
2019-05-25T11:50:13.353Z,21.90
2019-05-25T11:52:50.578Z,21.90
2019-05-25T11:55:21.323Z,21.90
2019-05-25T11:57:50.980Z,21.90
2019-05-25T12:00:25.354Z,21.90
2019-05-25T12:03:04.013Z,21.90
2019-05-25T12:08:38.237Z,21.80
2019-05-25T12:12:51.757Z,21.70
2019-05-25T12:13:47.665Z,21.60
2019-05-25T12:17:08.477Z,21.50
2019-05-25T12:18:57.507Z,21.50
2019-05-25T12:21:27.763Z,21.50
2019-05-25T12:24:10.462Z,21.50
2019-05-25T12:26:43.507Z,21.50
2019-05-25T12:29:18.716Z,21.50
2019-05-25T12:31:48.371Z,21.60
2019-05-25T12:34:18.094Z,21.70
2019-05-25T12:36:47.754Z,21.70
2019-05-25T12:39:17.443Z,21.70
2019-05-25T12:41:47.108Z,21.80
2019-05-25T12:44:18.262Z,21.70
2019-05-25T12:46:47.974Z,21.80
2019-05-25T12:49:17.649Z,21.70
2019-05-25T12:51:47.165Z,21.70
2019-05-25T12:54:16.853Z,21.70
2019-05-25T12:56:46.450Z,21.70
2019-05-25T12:59:16.284Z,21.60
2019-05-25T13:01:47.696Z,21.60
2019-05-25T13:04:17.368Z,21.40
2019-05-25T13:06:46.988Z,21.40
2019-05-25T13:09:16.718Z,21.30
2019-05-25T13:11:46.276Z,21.20
2019-05-25T13:14:15.919Z,21.20
2019-05-25T13:16:45.607Z,21.30
2019-05-25T13:19:18.471Z,21.30
2019-05-25T13:21:48.175Z,21.30
2019-05-25T13:24:17.910Z,21.30
2019-05-25T13:26:47.502Z,21.30
2019-05-25T13:29:17.114Z,21.30
2019-05-25T13:31:46.701Z,21.20
2019-05-25T13:34:16.375Z,21.20
2019-05-25T13:36:46.113Z,21.10
2019-05-25T13:39:15.791Z,21.20
2019-05-25T13:41:45.435Z,21.10
2019-05-25T13:44:15.095Z,21.20
2019-05-25T13:46:44.767Z,21.20
2019-05-25T13:49:14.425Z,21.30
2019-05-25T13:51:44.091Z,21.30
2019-05-25T13:54:13.730Z,21.30
2019-05-25T13:56:43.291Z,21.30
2019-05-25T13:59:13.180Z,21.20
2019-05-25T14:01:42.700Z,21.10
2019-05-25T14:04:12.318Z,21.00
2019-05-25T14:06:41.849Z,21.00
2019-05-25T14:09:11.557Z,20.90
2019-05-25T14:11:41.155Z,20.90
2019-05-25T14:14:11.063Z,20.80
2019-05-25T14:16:40.779Z,20.70
2019-05-25T14:19:10.452Z,20.60
2019-05-25T14:21:40.048Z,20.60
2019-05-25T14:24:11.269Z,20.50
2019-05-25T14:26:40.752Z,20.50
2019-05-25T14:29:10.400Z,20.40
2019-05-25T14:31:45.430Z,20.40
2019-05-25T14:34:11.299Z,20.30
2019-05-25T14:36:40.985Z,20.20
2019-05-25T14:39:10.614Z,20.20
2019-05-25T14:41:41.835Z,20.20
2019-05-25T14:44:11.454Z,20.10
2019-05-25T14:46:41.160Z,20.10
2019-05-25T14:49:10.807Z,20.00
2019-05-25T14:51:40.409Z,20.00
2019-05-25T14:54:10.167Z,19.80
2019-05-25T14:56:39.868Z,19.70
2019-05-25T14:59:09.588Z,19.50
2019-05-25T15:01:39.556Z,19.40
2019-05-25T15:04:09.536Z,19.20
2019-05-25T15:06:39.427Z,19.10
2019-05-25T15:09:09.127Z,19.00
2019-05-25T15:12:02.126Z,18.80
2019-05-25T15:14:39.957Z,18.70
2019-05-25T15:20:15.681Z,18.50
2019-05-25T15:22:47.076Z,18.50
2019-05-25T15:25:16.652Z,18.40
2019-05-25T15:27:46.416Z,18.30
2019-05-25T15:30:20.880Z,18.30
2019-05-25T15:32:52.122Z,18.20
2019-05-25T15:35:22.174Z,18.20
2019-05-25T15:37:51.856Z,18.10
2019-05-25T15:40:22.218Z,18.10
2019-05-25T15:42:51.839Z,18.00
2019-05-25T15:45:21.421Z,18.00
2019-05-25T15:47:51.088Z,17.90
2019-05-25T15:50:21.596Z,17.80
2019-05-25T15:52:51.315Z,17.70
2019-05-25T15:55:20.882Z,17.60
2019-05-25T15:57:50.499Z,17.40
2019-05-25T16:00:23.113Z,17.20
2019-05-25T16:02:52.829Z,17.00
2019-05-25T16:05:22.586Z,16.90
2019-05-25T16:07:53.798Z,16.70
2019-05-25T16:10:24.954Z,16.60
2019-05-25T16:12:54.684Z,16.50
2019-05-25T16:15:26.946Z,16.40
2019-05-25T16:17:56.531Z,16.30
2019-05-25T16:20:26.272Z,16.20
2019-05-25T16:22:55.998Z,16.20
2019-05-25T16:25:25.757Z,16.10
2019-05-25T16:27:55.341Z,16.00
2019-05-25T16:30:25.014Z,16.00
2019-05-25T16:33:11.696Z,15.90
2019-05-25T16:35:25.961Z,15.90
2019-05-25T16:37:55.670Z,15.90
2019-05-25T16:40:25.358Z,15.90
2019-05-25T16:42:57.019Z,15.80
2019-05-25T16:45:26.651Z,15.90
2019-05-25T16:47:56.276Z,15.90
2019-05-25T16:50:25.989Z,15.80
2019-05-25T16:52:55.709Z,15.80
2019-05-25T16:55:26.775Z,15.70
2019-05-25T16:57:56.487Z,15.70
2019-05-25T17:00:27.987Z,15.70
2019-05-25T17:02:58.549Z,15.70
2019-05-25T17:05:29.374Z,15.70
2019-05-25T17:07:59.060Z,15.60
2019-05-25T17:10:30.660Z,15.60
2019-05-25T17:13:00.968Z,15.60
2019-05-25T17:15:30.550Z,15.60
2019-05-25T17:18:04.371Z,15.60
2019-05-25T17:20:31.409Z,15.50
2019-05-25T17:23:01.107Z,15.50
2019-05-25T17:25:31.113Z,15.50
2019-05-25T17:28:00.836Z,15.50
2019-05-25T17:30:33.517Z,15.60
2019-05-25T17:33:03.229Z,15.50
2019-05-25T17:35:32.918Z,15.50
2019-05-25T17:38:02.540Z,15.50
2019-05-25T17:40:32.248Z,15.40
2019-05-25T17:43:01.767Z,15.40
2019-05-25T17:45:31.486Z,15.30
2019-05-25T17:48:01.088Z,15.30
2019-05-25T17:50:30.734Z,15.30
2019-05-25T17:53:00.284Z,15.30
2019-05-25T17:55:30.024Z,15.30
2019-05-25T17:57:59.621Z,15.30
2019-05-25T18:00:33.698Z,15.20
2019-05-25T18:03:03.822Z,15.30
2019-05-25T18:05:33.412Z,15.30
2019-05-25T18:08:02.990Z,15.20
2019-05-25T18:10:42.141Z,15.20
2019-05-25T18:13:04.161Z,15.10
2019-05-25T18:15:33.812Z,15.10
2019-05-25T18:18:03.586Z,15.00
2019-05-25T18:20:33.260Z,15.00
2019-05-25T18:23:03.975Z,15.00
2019-05-25T18:25:33.524Z,14.90
2019-05-25T18:28:03.127Z,14.90
2019-05-25T18:30:33.191Z,14.90
2019-05-25T18:33:05.092Z,14.90
2019-05-25T18:35:36.319Z,14.90
2019-05-25T18:38:06.107Z,14.90
2019-05-25T18:40:35.779Z,14.90
2019-05-25T18:43:05.389Z,14.80
2019-05-25T18:45:35.467Z,14.80
2019-05-25T18:48:05.265Z,14.80
2019-05-25T18:50:36.376Z,14.70
2019-05-25T18:53:06.126Z,14.70
2019-05-25T18:55:35.746Z,14.50
2019-05-25T18:58:05.415Z,14.50
2019-05-25T19:00:35.090Z,14.40
2019-05-25T19:03:04.935Z,14.40
2019-05-25T19:05:35.583Z,14.30
2019-05-25T19:08:05.317Z,14.30
2019-05-25T19:10:34.926Z,14.20
2019-05-25T19:13:04.696Z,14.20
2019-05-25T19:16:05.253Z,14.10
2019-05-25T19:18:42.480Z,14.20
2019-05-25T19:21:12.071Z,14.10
2019-05-25T19:23:41.769Z,14.00
2019-05-25T19:26:11.472Z,14.00
2019-05-25T19:28:41.162Z,13.90
2019-05-25T19:31:10.771Z,13.80
2019-05-25T19:33:40.421Z,13.80
2019-05-25T19:36:10.097Z,13.70
2019-05-25T19:38:39.776Z,13.70
2019-05-25T19:41:09.449Z,13.70
2019-05-25T19:43:39.175Z,13.70
2019-05-25T19:46:08.806Z,13.70
2019-05-25T19:48:38.490Z,13.80
2019-05-25T19:51:08.135Z,13.80
2019-05-25T19:53:37.779Z,13.70
2019-05-25T19:56:07.426Z,13.70
2019-05-25T19:58:37.108Z,13.70
2019-05-25T20:01:06.806Z,13.70
2019-05-25T20:03:36.509Z,13.60
2019-05-25T20:06:06.149Z,13.70
2019-05-25T20:08:35.844Z,13.70
2019-05-25T20:11:05.428Z,13.60
2019-05-25T20:13:35.124Z,13.60
2019-05-25T20:16:05.053Z,13.70
2019-05-25T20:18:34.858Z,13.70
2019-05-25T20:21:04.469Z,13.70
2019-05-25T20:23:34.124Z,13.70
2019-05-25T20:26:06.572Z,13.70
2019-05-25T20:28:36.230Z,13.70
2019-05-25T20:31:05.863Z,13.70
2019-05-25T20:33:35.587Z,13.70
2019-05-25T20:36:05.253Z,13.70
2019-05-25T20:38:34.884Z,13.60
2019-05-25T20:41:04.607Z,13.60
2019-05-25T20:43:34.215Z,13.60
2019-05-25T20:46:04.728Z,13.50
2019-05-25T20:48:34.400Z,13.50
2019-05-25T20:51:05.291Z,13.40
2019-05-25T20:53:34.997Z,13.40
2019-05-25T20:56:04.699Z,13.40
2019-05-25T20:58:34.229Z,13.50
2019-05-25T21:01:03.848Z,13.40
2019-05-25T21:03:33.482Z,13.40
2019-05-25T21:06:03.178Z,13.40
2019-05-25T21:08:32.801Z,13.40
2019-05-25T21:11:02.477Z,13.40
2019-05-25T21:13:32.114Z,13.40
2019-05-25T21:16:01.677Z,13.40
2019-05-25T21:18:31.206Z,13.40
2019-05-25T21:21:00.882Z,13.40
2019-05-25T21:23:30.451Z,13.40
2019-05-25T21:26:00.078Z,13.40
2019-05-25T21:28:29.702Z,13.40
2019-05-25T21:30:59.328Z,13.40
2019-05-25T21:33:29.049Z,13.40
2019-05-25T21:36:08.158Z,13.40
2019-05-25T21:38:30.016Z,13.40
2019-05-25T21:40:59.659Z,13.40
2019-05-25T21:43:29.530Z,13.40
2019-05-25T21:45:59.019Z,13.30
2019-05-25T21:48:28.692Z,13.30
2019-05-25T21:50:58.357Z,13.30
2019-05-25T21:53:28.081Z,13.30
2019-05-25T21:55:57.639Z,13.30
2019-05-25T21:58:27.275Z,13.30
2019-05-25T22:00:56.867Z,13.30
2019-05-25T22:03:28.162Z,13.30
2019-05-25T22:05:57.764Z,13.30
2019-05-25T22:08:27.428Z,13.30
2019-05-25T22:10:57.011Z,13.20
2019-05-25T22:13:28.883Z,13.20
2019-05-25T22:15:57.824Z,13.20
2019-05-25T22:18:29.207Z,13.20
2019-05-25T22:20:58.857Z,13.20
2019-05-25T22:23:28.522Z,13.20
2019-05-25T22:25:58.052Z,13.20
2019-05-25T22:28:41.936Z,13.20
2019-05-25T22:30:58.928Z,13.20
2019-05-25T22:33:28.592Z,13.10
2019-05-25T22:35:58.174Z,13.10
2019-05-25T22:38:27.839Z,13.10
2019-05-25T22:40:57.529Z,13.10
2019-05-25T22:43:27.168Z,13.10
2019-05-25T22:45:56.796Z,13.10
2019-05-25T22:48:26.394Z,13.10
2019-05-25T22:50:55.905Z,13.10
2019-05-25T22:53:25.529Z,13.00
2019-05-25T22:55:55.159Z,13.00
2019-05-25T22:58:24.730Z,13.00
2019-05-25T23:00:54.390Z,13.00
2019-05-25T23:03:24.137Z,13.00
2019-05-25T23:05:53.839Z,13.00
2019-05-25T23:08:23.431Z,13.00
2019-05-25T23:10:53.211Z,12.90
2019-05-25T23:13:22.810Z,12.90
2019-05-25T23:15:53.486Z,12.90
2019-05-25T23:18:23.102Z,12.90
2019-05-25T23:20:52.782Z,12.90
2019-05-25T23:23:22.481Z,12.80
2019-05-25T23:25:52.094Z,12.80
2019-05-25T23:28:21.695Z,12.80
2019-05-25T23:30:51.394Z,12.80
2019-05-25T23:33:21.069Z,12.80
2019-05-25T23:35:50.728Z,12.80
2019-05-25T23:38:20.454Z,12.80
2019-05-25T23:40:50.077Z,12.80
2019-05-25T23:43:19.734Z,12.80
2019-05-25T23:45:49.345Z,12.80
2019-05-25T23:48:19.021Z,12.80
2019-05-25T23:50:48.681Z,12.70
2019-05-25T23:53:18.378Z,12.70
2019-05-25T23:55:49.097Z,12.70
2019-05-25T23:58:18.693Z,12.70
